Time;durP1;ratioP1;P1;durP2;ratioP2;P2;SDS_P1;SDS_P2;PMS_P1;PMS_P2;Temp;Humidity;BMP_temperature;BMP_pressure;BME280_temperature;BME280_humidity;BME280_pressure;Samples;Min_cycle;Max_cycle;Signal;HPM_P1;HPM_P2
2022/05/17 00:00:15;;;;;;;26.70;10.48;;;15.00;99.90;;;;;;7400632;19;20027;-79
2022/05/17 00:02:44;;;;;;;25.30;11.60;;;14.90;99.90;;;;;;7400012;19;20015;-79
2022/05/17 00:05:13;;;;;;;26.83;11.32;;;14.90;99.90;;;;;;7400046;19;20081;-78
2022/05/17 00:07:42;;;;;;;30.42;11.55;;;14.90;99.90;;;;;;7400542;19;20017;-79
2022/05/17 00:10:14;;;;;;;25.08;11.50;;;15.20;99.90;;;;;;7399699;19;20034;-79
2022/05/17 00:12:43;;;;;;;29.85;12.02;;;14.80;99.90;;;;;;7399020;19;20025;-78
2022/05/17 00:15:13;;;;;;;27.02;11.05;;;14.90;99.90;;;;;;7397793;19;20074;-79
2022/05/17 00:17:42;;;;;;;24.77;11.40;;;14.70;99.90;;;;;;7403257;19;20046;-79
2022/05/17 00:20:13;;;;;;;29.33;12.07;;;14.70;99.90;;;;;;7400295;19;20472;-79
2022/05/17 00:22:43;;;;;;;24.17;11.13;;;14.70;99.90;;;;;;7400274;19;20010;-79
2022/05/17 00:25:16;;;;;;;27.60;11.25;;;14.70;99.90;;;;;;7399719;19;20022;-78
2022/05/17 00:27:46;;;;;;;23.63;11.00;;;14.70;99.90;;;;;;7398250;19;20028;-78
2022/05/17 00:30:16;;;;;;;26.48;11.50;;;14.50;99.90;;;;;;7401491;19;20026;-79
2022/05/17 00:32:45;;;;;;;23.85;10.20;;;14.60;99.90;;;;;;7397497;19;20358;-79
2022/05/17 00:35:14;;;;;;;29.52;11.50;;;14.60;99.90;;;;;;7399681;19;20042;-79
2022/05/17 00:37:43;;;;;;;21.92;10.90;;;14.50;99.90;;;;;;7398458;19;20011;-79
2022/05/17 00:40:16;;;;;;;25.67;10.88;;;14.50;99.90;;;;;;7400687;19;20014;-78
2022/05/17 00:42:46;;;;;;;24.90;10.27;;;14.40;99.90;;;;;;7396809;19;20027;-79
2022/05/17 00:45:12;;;;;;;26.40;10.60;;;14.50;99.90;;;;;;7398463;19;20041;-79
2022/05/17 00:47:46;;;;;;;25.08;10.32;;;14.40;99.90;;;;;;7398271;19;20086;-79
2022/05/17 00:50:22;;;;;;;27.42;10.52;;;14.40;99.90;;;;;;7399423;19;20018;-79
2022/05/17 00:52:53;;;;;;;25.70;11.98;;;14.40;99.90;;;;;;7397323;19;20025;-79
2022/05/17 00:55:28;;;;;;;29.70;10.77;;;14.40;99.90;;;;;;7399129;19;20014;-79
2022/05/17 00:58:02;;;;;;;27.75;10.35;;;14.40;99.90;;;;;;7396952;19;20632;-79
2022/05/17 01:00:35;;;;;;;24.25;10.80;;;14.30;99.90;;;;;;7398411;19;20350;-79
2022/05/17 01:03:08;;;;;;;21.90;10.55;;;14.30;99.90;;;;;;7397566;19;20014;-79
2022/05/17 01:05:41;;;;;;;22.55;9.98;;;14.30;99.90;;;;;;7399735;19;20377;-78
2022/05/17 01:08:12;;;;;;;27.25;10.43;;;14.30;99.90;;;;;;7397786;19;20297;-78
2022/05/17 01:10:45;;;;;;;25.35;10.40;;;14.30;99.90;;;;;;7397657;19;20018;-96
2022/05/17 01:15:55;;;;;;;22.33;8.70;;;14.40;99.90;;;;;;7410128;19;20158;-95
2022/05/17 01:18:24;;;;;;;26.70;10.52;;;14.20;99.90;;;;;;7405099;19;20014;-95
2022/05/17 01:20:54;;;;;;;22.17;10.52;;;;;;;;;;7408509;19;20003;-95
2022/05/17 01:23:26;;;;;;;29.10;10.07;;;14.10;99.90;;;;;;7407519;19;20019;-94
2022/05/17 01:25:55;;;;;;;25.48;10.18;;;14.10;99.90;;;;;;7406867;19;20024;-93
2022/05/17 01:28:27;;;;;;;20.95;9.90;;;14.10;99.90;;;;;;7407060;19;20074;-95
2022/05/17 01:31:03;;;;;;;23.95;9.30;;;14.10;99.90;;;;;;7408069;19;20014;-96
2022/05/17 01:33:34;;;;;;;25.80;10.07;;;14.20;99.90;;;;;;7404484;19;20015;-96
2022/05/17 01:36:04;;;;;;;23.88;8.70;;;14.10;99.90;;;;;;7405050;19;20011;-95
2022/05/17 01:38:36;;;;;;;23.67;9.18;;;14.10;99.90;;;;;;7406558;19;20022;-95
2022/05/17 01:41:06;;;;;;;26.33;9.52;;;14.10;99.90;;;;;;7416708;19;20006;-95
2022/05/17 01:43:35;;;;;;;22.10;8.85;;;14.00;99.90;;;;;;7429282;19;20011;-94
2022/05/17 01:46:08;;;;;;;24.55;9.80;;;14.10;99.90;;;;;;7421751;19;20003;-95
2022/05/17 01:48:38;;;;;;;23.90;8.80;;;14.00;99.90;;;;;;7405325;19;20046;-95
2022/05/17 01:51:08;;;;;;;27.58;10.05;;;14.00;99.90;;;;;;7404358;19;20010;-96
2022/05/17 01:53:40;;;;;;;21.38;8.60;;;13.90;99.90;;;;;;7404579;19;20033;-94
2022/05/17 01:56:10;;;;;;;21.15;9.18;;;14.00;99.90;;;;;;7406007;19;20074;-95
2022/05/17 01:58:40;;;;;;;22.33;9.38;;;13.90;99.90;;;;;;7404955;19;20047;-94
2022/05/17 02:01:11;;;;;;;20.80;9.25;;;13.90;99.90;;;;;;7409933;19;20035;-96
2022/05/17 02:03:40;;;;;;;21.20;8.48;;;13.90;99.90;;;;;;7409133;19;20050;-95
2022/05/17 02:06:09;;;;;;;23.70;8.85;;;13.80;99.90;;;;;;7407237;19;20021;-95
2022/05/17 02:08:41;;;;;;;24.92;8.98;;;14.00;99.90;;;;;;7404561;19;20005;-95
2022/05/17 02:11:10;;;;;;;28.77;9.57;;;;;;;;;;7405528;19;20007;-94
2022/05/17 02:13:47;;;;;;;27.98;8.77;;;13.90;99.90;;;;;;7403238;19;20039;-94
2022/05/17 02:16:16;;;;;;;18.52;8.68;;;13.90;99.90;;;;;;7395350;19;20112;-95
2022/05/17 02:18:45;;;;;;;27.70;9.07;;;13.80;99.90;;;;;;7404219;19;20031;-94
2022/05/17 02:21:14;;;;;;;26.67;9.77;;;13.80;99.90;;;;;;7403383;19;20017;-95
2022/05/17 02:23:46;;;;;;;20.25;8.57;;;13.80;99.90;;;;;;7406245;19;20522;-95
2022/05/17 02:26:15;;;;;;;22.67;9.02;;;13.80;99.90;;;;;;7404063;19;20019;-95
2022/05/17 02:28:44;;;;;;;24.67;8.73;;;13.90;99.90;;;;;;7403164;19;20018;-95
2022/05/17 02:31:15;;;;;;;22.23;8.00;;;13.80;99.90;;;;;;7405027;19;20030;-95
2022/05/17 02:33:44;;;;;;;23.83;8.85;;;13.80;99.90;;;;;;7405002;19;20485;-95
2022/05/17 02:36:13;;;;;;;22.77;8.98;;;13.70;99.90;;;;;;7402920;19;20015;-95
2022/05/17 02:38:44;;;;;;;22.08;9.75;;;13.60;99.90;;;;;;7404190;19;20424;-96
2022/05/17 02:41:17;;;;;;;21.10;8.55;;;13.80;99.90;;;;;;7402562;19;20010;-96
2022/05/17 02:43:51;;;;;;;19.45;8.23;;;13.70;99.90;;;;;;7407394;19;20359;-95
2022/05/17 02:46:20;;;;;;;17.90;8.35;;;13.70;99.90;;;;;;7402788;19;20014;-94
2022/05/17 02:48:49;;;;;;;24.27;8.52;;;13.70;99.90;;;;;;7402497;19;20345;-96
2022/05/17 02:51:21;;;;;;;23.60;8.48;;;13.70;99.90;;;;;;7403958;19;20023;-96
2022/05/17 02:53:53;;;;;;;23.08;8.60;;;13.70;99.90;;;;;;7405246;19;20018;-95
2022/05/17 02:56:21;;;;;;;21.27;8.82;;;13.60;99.90;;;;;;7404055;19;20053;-95
2022/05/17 02:58:50;;;;;;;27.98;9.13;;;13.60;99.90;;;;;;7401878;19;20037;-95
2022/05/17 03:01:22;;;;;;;20.55;8.82;;;13.70;99.90;;;;;;7402932;19;20018;-94
2022/05/17 03:03:51;;;;;;;21.23;7.40;;;13.60;99.90;;;;;;7414043;19;20015;-94
2022/05/17 03:06:21;;;;;;;25.15;9.05;;;13.50;99.90;;;;;;7404886;19;20015;-95
2022/05/17 03:08:52;;;;;;;19.85;8.63;;;13.60;99.90;;;;;;7402396;19;20007;-95
2022/05/17 03:11:21;;;;;;;21.60;8.38;;;13.40;99.90;;;;;;7403240;19;20027;-95
2022/05/17 03:13:51;;;;;;;25.73;8.35;;;;;;;;;;7409313;19;20481;-96
2022/05/17 03:16:22;;;;;;;17.75;7.40;;;13.50;99.90;;;;;;7409619;19;20014;-95
2022/05/17 03:18:51;;;;;;;23.88;8.23;;;13.50;99.90;;;;;;7418598;19;20006;-95
2022/05/17 03:21:20;;;;;;;21.67;7.95;;;13.50;99.90;;;;;;7406597;19;20019;-95
2022/05/17 03:23:48;;;;;;;22.80;9.10;;;13.50;99.90;;;;;;7403868;19;20058;-94
2022/05/17 03:26:20;;;;;;;18.88;8.60;;;13.60;99.90;;;;;;7404396;19;20021;-95
2022/05/17 03:28:49;;;;;;;20.05;8.43;;;13.50;99.90;;;;;;7401092;19;20027;-95
2022/05/17 03:31:18;;;;;;;24.23;8.52;;;13.50;99.90;;;;;;7404162;19;20026;-95
2022/05/17 03:33:47;;;;;;;19.13;8.52;;;13.50;99.90;;;;;;7402810;19;20015;-94
2022/05/17 03:36:18;;;;;;;20.27;7.35;;;13.60;99.90;;;;;;7404154;19;20070;-95
2022/05/17 03:38:47;;;;;;;24.02;9.57;;;13.40;99.90;;;;;;7402506;19;20554;-95
2022/05/17 03:41:16;;;;;;;25.15;8.35;;;13.40;99.90;;;;;;7402436;19;20512;-94
2022/05/17 03:43:47;;;;;;;17.90;9.02;;;13.70;99.90;;;;;;7402030;19;20020;-95
2022/05/17 03:46:17;;;;;;;19.42;7.85;;;13.50;99.90;;;;;;7400872;19;20018;-94
2022/05/17 03:48:46;;;;;;;24.17;7.88;;;;;;;;;;7404942;19;20738;-94
2022/05/17 03:51:17;;;;;;;24.73;8.57;;;13.50;99.90;;;;;;7405050;19;20050;-94
2022/05/17 03:53:47;;;;;;;24.38;8.65;;;13.50;99.90;;;;;;7400192;19;20812;-94
2022/05/17 03:56:16;;;;;;;26.17;8.65;;;13.60;99.90;;;;;;7401934;19;20031;-94
2022/05/17 03:58:48;;;;;;;23.75;8.82;;;13.50;99.90;;;;;;7400554;19;20043;-94
2022/05/17 04:01:19;;;;;;;17.95;8.60;;;13.50;99.90;;;;;;7399374;19;20384;-94
2022/05/17 04:03:48;;;;;;;22.02;8.02;;;13.40;99.90;;;;;;7402774;19;20561;-94
2022/05/17 04:06:16;;;;;;;25.30;8.80;;;13.30;99.90;;;;;;7399942;19;20003;-94
2022/05/17 04:08:45;;;;;;;21.40;8.90;;;13.50;99.90;;;;;;7402707;19;20041;-94
2022/05/17 04:11:14;;;;;;;23.10;9.23;;;13.40;99.90;;;;;;7399655;19;20030;-94
2022/05/17 04:13:43;;;;;;;23.85;9.57;;;;;;;;;;7403232;19;20020;-94
2022/05/17 04:16:15;;;;;;;23.70;8.18;;;13.70;99.90;;;;;;7407718;19;20006;-95
2022/05/17 04:18:46;;;;;;;24.55;9.48;;;13.50;99.90;;;;;;7409825;19;20144;-95
2022/05/17 04:21:15;;;;;;;21.25;9.23;;;13.60;99.90;;;;;;7421797;19;20006;-94
2022/05/17 04:23:44;;;;;;;25.75;9.48;;;13.50;99.90;;;;;;7410746;19;20488;-94
2022/05/17 04:26:14;;;;;;;26.88;9.65;;;13.80;99.90;;;;;;7408359;19;20019;-95
2022/05/17 04:28:43;;;;;;;23.60;9.32;;;13.60;99.90;;;;;;7406488;19;20014;-95
2022/05/17 04:31:14;;;;;;;23.25;9.27;;;13.60;99.90;;;;;;7406006;19;20090;-94
2022/05/17 04:33:43;;;;;;;25.00;9.02;;;13.60;99.90;;;;;;7406192;19;20027;-95
2022/05/17 04:36:13;;;;;;;24.77;9.05;;;13.60;99.90;;;;;;7410174;19;20025;-94
2022/05/17 04:38:42;;;;;;;21.90;9.13;;;13.60;99.90;;;;;;7409577;19;20010;-95
2022/05/17 04:41:11;;;;;;;20.38;8.85;;;;;;;;;;7408133;19;20013;-96
2022/05/17 04:43:40;;;;;;;19.27;8.65;;;13.90;99.90;;;;;;7410879;19;20014;-96
2022/05/17 04:46:11;;;;;;;17.77;8.75;;;13.80;99.90;;;;;;7410181;19;20017;-96
2022/05/17 04:48:45;;;;;;;19.60;8.70;;;13.70;99.90;;;;;;7409621;19;20018;-96
2022/05/17 04:51:16;;;;;;;19.33;8.40;;;13.80;99.90;;;;;;7418114;19;20022;-96
2022/05/17 04:53:46;;;;;;;21.70;9.07;;;13.90;99.90;;;;;;7426117;19;20035;-96
2022/05/17 04:56:15;;;;;;;21.58;8.55;;;14.10;99.90;;;;;;7419257;19;20027;-95
2022/05/17 04:58:44;;;;;;;25.58;9.45;;;13.90;99.90;;;;;;7411675;19;20428;-95
2022/05/17 05:01:13;;;;;;;25.05;8.93;;;14.00;99.90;;;;;;7408535;19;20346;-94
2022/05/17 05:03:44;;;;;;;20.92;8.82;;;14.00;99.90;;;;;;7407518;19;20014;-96
2022/05/17 05:06:13;;;;;;;17.75;8.75;;;14.10;99.90;;;;;;7411633;19;20011;-96
2022/05/17 05:08:42;;;;;;;22.60;8.23;;;14.10;99.90;;;;;;7413188;19;20017;-95
2022/05/17 05:11:11;;;;;;;20.85;9.15;;;;;;;;;;7406822;19;20351;-95
2022/05/17 05:13:40;;;;;;;18.05;9.13;;;14.20;99.90;;;;;;7407152;19;20024;-95
2022/05/17 05:16:12;;;;;;;23.92;8.52;;;14.20;99.90;;;;;;7408724;19;20019;-95
2022/05/17 05:18:44;;;;;;;23.10;8.43;;;14.20;99.90;;;;;;7409325;19;20021;-94
2022/05/17 05:21:15;;;;;;;22.48;9.32;;;14.40;99.90;;;;;;7405594;19;20086;-96
2022/05/17 05:23:47;;;;;;;18.63;8.38;;;14.40;99.90;;;;;;7405713;19;20106;-96
2022/05/17 05:26:16;;;;;;;24.25;8.70;;;14.40;99.90;;;;;;7408283;19;20021;-96
2022/05/17 05:28:46;;;;;;;20.67;7.50;;;14.50;99.90;;;;;;7406916;19;20077;-96
2022/05/17 05:31:17;;;;;;;21.75;8.95;;;14.50;99.90;;;;;;7406938;19;20015;-96
2022/05/17 05:33:54;;;;;;;24.40;8.82;;;14.60;99.90;;;;;;7411711;19;20484;-96
2022/05/17 05:36:23;;;;;;;21.20;8.57;;;14.50;99.90;;;;;;7405796;19;20007;-96
2022/05/17 05:38:54;;;;;;;20.98;8.27;;;14.70;99.90;;;;;;7421128;19;20006;-95
2022/05/17 05:41:23;;;;;;;22.38;8.25;;;14.70;99.90;;;;;;7408722;19;20021;-96
2022/05/17 05:43:52;;;;;;;21.23;7.90;;;14.90;99.90;;;;;;7410398;19;20338;-96
2022/05/17 05:46:21;;;;;;;26.20;8.30;;;14.50;99.90;;;;;;7408660;19;20017;-96
2022/05/17 05:48:54;;;;;;;18.65;7.53;;;14.80;99.90;;;;;;7407387;19;20497;-96
2022/05/17 05:51:24;;;;;;;20.20;7.75;;;14.90;99.90;;;;;;7406710;19;20439;-96
2022/05/17 05:53:53;;;;;;;20.23;7.32;;;14.90;99.90;;;;;;7409567;19;20018;-96
2022/05/17 05:56:32;;;;;;;14.38;7.15;;;14.90;99.90;;;;;;7409499;19;20032;-96
2022/05/17 05:59:01;;;;;;;15.18;6.75;;;14.90;99.90;;;;;;7407079;19;20014;-95
2022/05/17 06:01:30;;;;;;;11.63;5.82;;;14.90;99.90;;;;;;7405241;19;20046;-93
2022/05/17 06:04:02;;;;;;;17.73;7.13;;;15.10;99.90;;;;;;7406244;19;20363;-95
2022/05/17 06:06:31;;;;;;;16.05;7.03;;;15.00;99.90;;;;;;7402912;19;20470;-96
2022/05/17 06:09:00;;;;;;;16.10;6.82;;;15.00;99.90;;;;;;7403610;19;19999;-95
2022/05/17 06:11:30;;;;;;;18.58;7.10;;;15.10;99.90;;;;;;7403024;19;20011;-96
2022/05/17 06:14:00;;;;;;;18.10;6.57;;;15.20;99.90;;;;;;7405072;19;20015;-96
2022/05/17 06:16:29;;;;;;;20.17;7.15;;;15.20;99.90;;;;;;7414557;19;20006;-95
2022/05/17 06:19:01;;;;;;;19.40;6.90;;;15.20;99.90;;;;;;7415875;19;20019;-96
2022/05/17 06:21:31;;;;;;;17.17;7.30;;;15.20;99.90;;;;;;7403116;19;20006;-96
2022/05/17 06:24:00;;;;;;;14.60;6.75;;;15.20;99.90;;;;;;7405687;19;20031;-96
2022/05/17 06:26:29;;;;;;;16.80;6.82;;;15.40;99.90;;;;;;7404372;19;20010;-96
2022/05/17 06:28:58;;;;;;;14.57;6.22;;;15.10;99.90;;;;;;7417673;19;20023;-95
2022/05/17 06:31:27;;;;;;;18.05;7.55;;;15.50;99.90;;;;;;7408013;19;20015;-96
2022/05/17 06:33:56;;;;;;;20.40;6.70;;;15.50;99.90;;;;;;7406717;19;20337;-96
2022/05/17 06:36:27;;;;;;;14.02;6.72;;;15.40;99.90;;;;;;7399772;19;20003;-95
2022/05/17 06:38:57;;;;;;;14.02;7.32;;;15.50;99.90;;;;;;7405668;19;20346;-96
2022/05/17 06:41:25;;;;;;;17.20;6.18;;;15.20;99.90;;;;;;7403424;19;20017;-96
2022/05/17 06:43:55;;;;;;;15.55;6.93;;;15.50;99.90;;;;;;7406111;19;20046;-96
2022/05/17 06:46:23;;;;;;;18.48;7.30;;;15.70;99.90;;;;;;7402136;19;20599;-95
2022/05/17 06:48:53;;;;;;;15.65;7.00;;;15.50;99.90;;;;;;7408082;19;20054;-96
2022/05/17 06:51:22;;;;;;;18.17;6.90;;;15.80;99.90;;;;;;7412249;19;20015;-95
2022/05/17 06:53:53;;;;;;;16.98;7.20;;;15.30;99.90;;;;;;7413248;19;20030;-96
2022/05/17 06:56:22;;;;;;;17.83;6.70;;;15.80;99.90;;;;;;7421155;19;20016;-96
2022/05/17 06:58:51;;;;;;;15.70;6.35;;;15.70;99.90;;;;;;7415622;19;20066;-96
2022/05/17 07:01:20;;;;;;;17.77;7.55;;;15.70;99.90;;;;;;7400559;19;20002;-96
2022/05/17 07:03:50;;;;;;;15.88;6.30;;;15.90;99.90;;;;;;7401380;19;20462;-96
2022/05/17 07:06:19;;;;;;;18.02;7.10;;;16.10;99.90;;;;;;7402493;19;20006;-94
2022/05/17 07:08:48;;;;;;;15.07;6.30;;;16.20;99.90;;;;;;7414767;19;20042;-96
2022/05/17 07:14:02;;;;;;;18.73;6.68;;;16.20;99.90;;;;;;7415057;19;20014;-96
2022/05/17 07:16:37;;;;;;;11.60;5.95;;;16.40;99.90;;;;;;7397264;19;20015;-95
2022/05/17 07:19:07;;;;;;;13.45;5.70;;;16.80;99.90;;;;;;7404668;19;20034;-96
2022/05/17 07:21:36;;;;;;;17.05;6.10;;;16.00;99.90;;;;;;7407562;19;20131;-93
2022/05/17 07:24:05;;;;;;;14.32;6.03;;;16.20;99.90;;;;;;7405710;19;20486;-96
2022/05/17 07:26:36;;;;;;;14.38;5.78;;;16.50;99.90;;;;;;7402531;19;20015;-96
2022/05/17 07:29:06;;;;;;;15.38;5.93;;;16.40;99.90;;;;;;7410902;19;20094;-96
2022/05/17 07:31:35;;;;;;;14.50;6.40;;;16.50;99.90;;;;;;7405832;19;20007;-96
2022/05/17 07:34:06;;;;;;;16.00;4.97;;;16.50;99.90;;;;;;7408004;19;20027;-95
2022/05/17 07:36:35;;;;;;;12.30;5.05;;;16.40;99.90;;;;;;7411968;19;20031;-95
2022/05/17 07:39:04;;;;;;;13.15;5.20;;;16.60;99.90;;;;;;7417626;19;20052;-94
2022/05/17 07:41:37;;;;;;;13.82;5.30;;;16.70;99.90;;;;;;7410694;19;20035;-96
2022/05/17 07:44:07;;;;;;;15.63;5.82;;;16.60;99.90;;;;;;7403204;19;20031;-96
2022/05/17 07:46:36;;;;;;;15.32;5.40;;;16.70;99.90;;;;;;7405815;19;20027;-96
2022/05/17 07:49:09;;;;;;;17.13;5.38;;;16.70;99.90;;;;;;7415738;19;20007;-96
2022/05/17 07:51:38;;;;;;;13.02;4.82;;;16.70;99.90;;;;;;7418424;19;20015;-95
2022/05/17 07:54:07;;;;;;;12.27;5.00;;;16.70;99.90;;;;;;7405479;19;20003;-95
2022/05/17 07:56:39;;;;;;;16.63;5.90;;;17.00;99.90;;;;;;7407907;19;20047;-94
2022/05/17 07:59:08;;;;;;;16.85;5.60;;;17.10;99.90;;;;;;7414834;19;20032;-96
2022/05/17 08:01:37;;;;;;;12.70;5.07;;;17.00;99.90;;;;;;7425011;19;20010;-96
2022/05/17 08:04:09;;;;;;;15.38;4.95;;;17.10;99.90;;;;;;7430880;19;20011;-94
2022/05/17 08:06:39;;;;;;;15.20;4.70;;;17.20;99.90;;;;;;7430117;19;20024;-96
2022/05/17 08:09:09;;;;;;;12.23;4.60;;;17.30;99.90;;;;;;7432719;19;20014;-96
2022/05/17 08:11:43;;;;;;;11.57;4.90;;;16.00;99.90;;;;;;7433049;19;20015;-94
2022/05/17 08:14:12;;;;;;;12.15;4.88;;;17.10;99.90;;;;;;7431497;19;20015;-96
2022/05/17 08:16:42;;;;;;;14.23;5.32;;;17.50;99.90;;;;;;7409694;19;20007;-95
2022/05/17 08:19:11;;;;;;;14.50;5.30;;;17.40;99.90;;;;;;7422683;19;20015;-96
2022/05/17 08:21:41;;;;;;;15.30;5.13;;;17.30;99.90;;;;;;7419361;19;20024;-96
2022/05/17 08:24:10;;;;;;;14.35;4.72;;;17.30;99.90;;;;;;7416695;19;20022;-96
2022/05/17 08:29:23;;;;;;;13.50;4.75;;;17.40;99.90;;;;;;7429116;19;20006;-95
2022/05/17 08:34:36;;;;;;;12.98;4.95;;;17.50;99.90;;;;;;7420839;19;20022;-96
2022/05/17 08:37:07;;;;;;;15.60;4.90;;;17.70;99.90;;;;;;7424783;19;20015;-96
2022/05/17 08:39:36;;;;;;;11.30;5.22;;;17.70;99.90;;;;;;7431253;19;20055;-96
2022/05/17 08:42:20;;;;;;;12.38;5.07;;;17.60;99.90;;;;;;7422479;19;20126;-94
2022/05/17 08:44:53;;;;;;;11.98;5.07;;;17.70;99.90;;;;;;7420244;19;20010;-96
2022/05/17 08:47:29;;;;;;;15.18;5.38;;;17.90;99.90;;;;;;7422990;19;20018;-96
2022/05/17 08:50:05;;;;;;;12.38;5.22;;;17.60;99.90;;;;;;7419156;19;20019;-96
2022/05/17 08:52:38;;;;;;;13.07;5.68;;;17.80;99.90;;;;;;7427472;19;20489;-96
2022/05/17 08:55:23;;;;;;;11.40;5.28;;;17.90;99.90;;;;;;7421644;19;20013;-95
2022/05/17 08:58:01;;;;;;;13.35;5.13;;;17.80;99.90;;;;;;7427126;19;20010;-94
2022/05/17 09:00:38;;;;;;;9.45;4.03;;;18.00;99.90;;;;;;7427336;19;20014;-96
2022/05/17 09:03:19;;;;;;;12.65;4.70;;;18.00;99.90;;;;;;7423149;19;20035;-91
2022/05/17 09:05:57;;;;;;;10.45;4.50;;;18.20;99.90;;;;;;7429129;19;20021;-94
2022/05/17 09:08:41;;;;;;;10.23;4.57;;;18.20;99.90;;;;;;7422937;19;20042;-96
2022/05/17 09:11:18;;;;;;;14.00;4.50;;;18.30;99.90;;;;;;7421425;19;20025;-95
2022/05/17 09:13:56;;;;;;;12.25;5.00;;;18.30;99.90;;;;;;7416919;19;20011;-96
2022/05/17 09:16:29;;;;;;;15.45;5.60;;;18.30;99.90;;;;;;7418297;19;20003;-96
2022/05/17 09:18:58;;;;;;;14.25;5.18;;;18.50;99.90;;;;;;7408987;19;20051;-96
2022/05/17 09:21:32;;;;;;;11.73;4.97;;;18.60;99.90;;;;;;7412149;19;20018;-96
2022/05/17 09:24:04;;;;;;;14.02;5.50;;;17.60;99.90;;;;;;7416353;19;20357;-95
2022/05/17 09:26:39;;;;;;;10.23;4.70;;;18.80;99.90;;;;;;7415288;19;20022;-96
2022/05/17 09:29:29;;;;;;;15.13;5.30;;;18.90;99.90;;;;;;7420374;19;20102;-96
2022/05/17 09:32:21;;;;;;;11.77;4.50;;;18.90;99.90;;;;;;7424170;19;20494;-96
2022/05/17 09:35:04;;;;;;;12.65;4.97;;;19.10;99.90;;;;;;7425198;19;20010;-96
2022/05/17 09:37:40;;;;;;;12.10;4.50;;;19.30;99.90;;;;;;7415885;19;20011;-96
2022/05/17 09:40:14;;;;;;;12.30;4.38;;;19.30;99.90;;;;;;7425758;19;20039;-95
2022/05/17 09:42:56;;;;;;;11.27;4.28;;;19.20;99.90;;;;;;7418938;19;20204;-96
2022/05/17 09:45:41;;;;;;;11.80;4.32;;;19.20;99.90;;;;;;7411314;19;20014;-96
2022/05/17 09:48:17;;;;;;;10.38;4.38;;;19.40;99.90;;;;;;7416011;19;20024;-94
2022/05/17 09:53:44;;;;;;;8.73;3.50;;;19.40;99.90;;;;;;7412428;19;20054;-96
2022/05/17 09:56:16;;;;;;;7.53;3.35;;;19.60;99.90;;;;;;7417352;19;20019;-96
2022/05/17 10:03:05;;;;;;;10.52;3.88;;;20.00;99.90;;;;;;7423897;19;20018;-96
2022/05/17 10:12:31;;;;;;;11.23;3.70;;;20.70;99.90;;;;;;7412068;19;20030;-96
2022/05/17 10:15:04;;;;;;;8.45;4.35;;;21.00;99.90;;;;;;7404679;19;20006;-96
2022/05/17 10:17:39;;;;;;;9.00;3.30;;;21.50;99.90;;;;;;7407063;19;20015;-95
2022/05/17 10:20:13;;;;;;;10.15;3.90;;;21.60;99.90;;;;;;7429063;19;20022;-92
2022/05/17 10:22:54;;;;;;;8.63;3.10;;;21.80;99.90;;;;;;7421375;19;20014;-93
2022/05/17 10:25:29;;;;;;;8.65;3.80;;;21.30;99.90;;;;;;7430983;19;20010;-95
2022/05/17 10:28:11;;;;;;;13.55;5.38;;;22.20;99.90;;;;;;7414015;19;20014;-96
2022/05/17 10:30:48;;;;;;;9.95;4.38;;;22.70;99.90;;;;;;7427397;19;20024;-96
2022/05/17 10:33:21;;;;;;;10.75;3.38;;;22.80;99.90;;;;;;7413601;19;20031;-95
2022/05/17 10:35:55;;;;;;;10.05;4.30;;;23.50;99.90;;;;;;7403931;19;20010;-96
2022/05/17 10:38:28;;;;;;;8.55;2.90;;;23.40;99.90;;;;;;7402925;19;20002;-95
2022/05/17 10:41:01;;;;;;;7.15;3.45;;;23.10;99.90;;;;;;7402669;19;20014;-94
2022/05/17 10:43:37;;;;;;;9.68;3.70;;;23.30;99.90;;;;;;7398203;19;20030;-94
2022/05/17 10:46:14;;;;;;;9.77;3.45;;;23.30;99.90;;;;;;7399391;19;20003;-94
2022/05/17 10:48:58;;;;;;;8.32;3.30;;;23.60;99.90;;;;;;7402150;19;20003;-94
2022/05/17 10:51:51;;;;;;;8.75;3.05;;;23.20;99.90;;;;;;7415598;19;20042;-95
2022/05/17 10:54:47;;;;;;;8.60;3.95;;;22.60;99.90;;;;;;7408860;19;20007;-94
2022/05/17 10:57:31;;;;;;;8.57;3.40;;;22.60;99.90;;;;;;7401754;19;20104;-94
2022/05/17 11:00:14;;;;;;;13.68;4.28;;;23.50;99.90;;;;;;7398808;19;20006;-93
2022/05/17 11:03:10;;;;;;;9.30;3.47;;;23.70;99.90;;;;;;7398735;19;20017;-93
2022/05/17 11:05:53;;;;;;;8.73;3.30;;;24.20;99.90;;;;;;7397550;19;20342;-94
2022/05/17 11:08:30;;;;;;;8.00;3.70;;;24.60;99.90;;;;;;7398085;19;20086;-93
2022/05/17 11:11:06;;;;;;;11.13;4.30;;;24.00;99.90;;;;;;7399339;19;20089;-93
2022/05/17 11:13:46;;;;;;;11.00;4.05;;;24.10;99.90;;;;;;7400295;19;20006;-93
2022/05/17 11:16:23;;;;;;;10.25;3.60;;;24.30;99.90;;;;;;7411010;19;20026;-92
2022/05/17 11:19:01;;;;;;;8.45;3.90;;;24.60;99.90;;;;;;7411637;19;20010;-93
2022/05/17 11:21:33;;;;;;;11.32;3.25;;;24.60;99.90;;;;;;7397372;19;20035;-94
2022/05/17 11:24:17;;;;;;;7.07;3.13;;;24.50;99.90;;;;;;7397673;19;20034;-93
2022/05/17 11:27:13;;;;;;;10.02;3.70;;;24.90;99.90;;;;;;7398797;19;20031;-94
2022/05/17 11:30:04;;;;;;;10.48;3.60;;;25.10;99.90;;;;;;7399783;19;20022;-94
2022/05/17 11:32:38;;;;;;;9.98;3.38;;;25.10;99.90;;;;;;7400125;19;20016;-94
2022/05/17 11:35:38;;;;;;;9.60;3.08;;;25.10;99.90;;;;;;7400728;19;20042;-93
2022/05/17 11:38:10;;;;;;;11.38;3.33;;;25.70;99.90;;;;;;7396851;19;20056;-93
2022/05/17 11:41:00;;;;;;;8.27;3.47;;;25.50;99.90;;;;;;7405209;19;20025;-93
2022/05/17 11:43:54;;;;;;;8.93;3.42;;;26.00;99.90;;;;;;7399733;19;20390;-94
2022/05/17 11:46:43;;;;;;;8.52;3.17;;;26.80;99.90;;;;;;7396113;19;20007;-94
2022/05/17 11:49:45;;;;;;;8.48;3.10;;;27.00;99.90;;;;;;7395967;19;20007;-94
2022/05/17 11:52:30;;;;;;;10.82;3.25;;;26.20;99.90;;;;;;7396320;19;20019;-94
2022/05/17 11:55:02;;;;;;;;;;;26.10;99.90;;;;;;7396780;19;20015;-93
2022/05/17 11:58:04;;;;;;;8.50;3.42;;;25.90;99.90;;;;;;7394806;19;20256;-94
2022/05/17 12:00:50;;;;;;;11.27;4.20;;;26.00;99.90;;;;;;7396726;19;20469;-94
2022/05/17 12:03:54;;;;;;;9.95;4.78;;;25.70;99.90;;;;;;7395966;19;20077;-94
2022/05/17 12:06:43;;;;;;;9.73;4.90;;;25.90;99.90;;;;;;7395980;19;20470;-94
2022/05/17 12:09:32;;;;;;;11.02;5.30;;;26.80;99.90;;;;;;7409269;19;20011;-93
2022/05/17 12:12:29;;;;;;;10.82;5.18;;;26.80;99.90;;;;;;7396247;19;20010;-93
2022/05/17 12:15:23;;;;;;;11.50;5.05;;;27.30;99.90;;;;;;7397306;19;20384;-94
2022/05/17 12:18:06;;;;;;;10.63;5.15;;;27.80;99.90;;;;;;7400037;19;20359;-94
2022/05/17 12:20:47;;;;;;;10.43;4.63;;;27.50;99.90;;;;;;7399681;19;20471;-94
2022/05/17 12:23:24;;;;;;;11.05;4.63;;;27.40;99.90;;;;;;7397826;19;20031;-94
2022/05/17 12:25:59;;;;;;;10.07;4.60;;;28.60;99.90;;;;;;7400054;19;20038;-94
2022/05/17 12:28:36;;;;;;;;;;;27.80;99.90;;;;;;7396717;19;20014;-95
2022/05/17 12:31:07;;;;;;;9.45;4.80;;;28.10;99.90;;;;;;7397214;19;20347;-94
2022/05/17 12:33:38;;;;;;;12.90;4.90;;;28.50;99.90;;;;;;7398645;19;20385;-95
2022/05/17 12:36:18;;;;;;;10.02;4.95;;;28.70;99.90;;;;;;7404119;19;20018;-94
2022/05/17 12:44:27;;;;;;;8.80;3.28;;;29.10;99.90;;;;;;7402769;19;20048;-94
2022/05/17 12:47:00;;;;;;;6.80;3.10;;;28.10;94.90;;;;;;7401998;19;20027;-95
2022/05/17 12:49:32;;;;;;;10.85;3.60;;;28.60;90.60;;;;;;7406798;19;20019;-95
2022/05/17 12:52:04;;;;;;;8.10;3.40;;;29.60;78.70;;;;;;7426187;19;20018;-95
2022/05/17 12:54:37;;;;;;;10.75;4.78;;;30.30;77.70;;;;;;7419184;19;20027;-94
2022/05/17 12:57:18;;;;;;;8.23;4.40;;;30.50;74.20;;;;;;7409041;19;20104;-94
2022/05/17 12:59:47;;;;;;;12.07;4.60;;;30.70;74.50;;;;;;7420550;19;20014;-95
2022/05/17 13:02:24;;;;;;;11.43;4.95;;;31.20;73.80;;;;;;7430572;19;20010;-95
2022/05/17 13:04:54;;;;;;;9.20;4.47;;;31.60;67.60;;;;;;7406718;19;20014;-94
2022/05/17 13:07:25;;;;;;;10.70;4.32;;;31.60;66.70;;;;;;7418463;19;20011;-94
2022/05/17 13:10:02;;;;;;;9.85;4.38;;;32.20;64.30;;;;;;7404765;19;20010;-95
2022/05/17 13:12:34;;;;;;;9.60;3.58;;;32.10;61.20;;;;;;7402834;19;20062;-93
2022/05/17 13:15:07;;;;;;;9.07;3.63;;;32.10;64.30;;;;;;7404941;19;20015;-96
2022/05/17 13:17:39;;;;;;;11.45;4.65;;;32.80;60.80;;;;;;7403818;19;20018;-96
2022/05/17 13:20:14;;;;;;;9.70;3.92;;;32.80;59.10;;;;;;7400862;19;20018;-95
2022/05/17 13:22:46;;;;;;;10.48;4.00;;;33.00;58.10;;;;;;7405757;19;20031;-95
2022/05/17 13:25:22;;;;;;;8.30;3.88;;;32.60;58.40;;;;;;7412933;19;20031;-95
2022/05/17 13:27:54;;;;;;;9.68;4.50;;;31.70;60.00;;;;;;7416975;19;20011;-95
2022/05/17 13:30:32;;;;;;;9.73;4.38;;;30.80;62.00;;;;;;7405477;19;20360;-93
2022/05/17 13:33:02;;;;;;;9.07;4.38;;;30.30;64.60;;;;;;7421606;19;20046;-96
2022/05/17 13:35:32;;;;;;;8.98;4.50;;;30.70;65.20;;;;;;7407165;19;20014;-95
2022/05/17 13:38:08;;;;;;;12.05;4.60;;;31.20;65.30;;;;;;7406018;19;20014;-95
2022/05/17 13:40:43;;;;;;;6.85;4.00;;;31.80;62.50;;;;;;7406945;19;20239;-96